createdAt,value
2022-10-05T00:01:58.396Z,10.65
2022-10-05T00:04:28.945Z,9.70
2022-10-05T00:07:06.764Z,15.52
2022-10-05T00:09:36.099Z,12.68
2022-10-05T00:12:23.488Z,14.85
2022-10-05T00:15:03.825Z,11.05
2022-10-05T00:17:30.614Z,8.73
2022-10-05T00:19:57.439Z,10.52
2022-10-05T00:22:32.496Z,7.38
2022-10-05T00:25:00.669Z,9.32
2022-10-05T00:27:34.236Z,10.05
2022-10-05T00:30:14.087Z,13.80
2022-10-05T00:32:43.322Z,12.13
2022-10-05T00:35:10.984Z,8.48
2022-10-05T00:37:37.658Z,9.48
2022-10-05T00:40:14.805Z,9.13
2022-10-05T00:42:56.381Z,8.90
2022-10-05T00:45:31.452Z,9.23
2022-10-05T00:48:12.299Z,11.27
2022-10-05T00:50:47.815Z,13.23
2022-10-05T00:53:33.728Z,10.25
2022-10-05T00:56:29.518Z,9.73
2022-10-05T00:59:05.839Z,5.88
2022-10-05T01:01:41.413Z,9.25
2022-10-05T01:04:14.038Z,8.30
2022-10-05T01:06:56.820Z,9.52
2022-10-05T01:09:36.726Z,8.05
2022-10-05T01:12:45.939Z,8.15
2022-10-05T01:15:12.326Z,8.60
2022-10-05T01:17:53.240Z,7.93
2022-10-05T01:20:31.430Z,7.28
2022-10-05T01:23:12.803Z,9.18
2022-10-05T01:26:01.047Z,7.28
2022-10-05T01:28:37.251Z,5.72
2022-10-05T01:31:09.964Z,7.30
2022-10-05T01:34:01.318Z,9.77
2022-10-05T01:36:37.693Z,7.25
2022-10-05T01:39:25.356Z,7.22
2022-10-05T01:42:01.055Z,7.38
2022-10-05T01:44:35.553Z,7.95
2022-10-05T01:47:17.156Z,6.32
2022-10-05T01:49:50.139Z,6.13
2022-10-05T01:52:38.012Z,7.55
2022-10-05T01:55:10.406Z,7.50
2022-10-05T02:00:19.817Z,8.90
2022-10-05T02:02:49.259Z,7.78
2022-10-05T02:05:22.633Z,6.65
2022-10-05T02:07:58.102Z,7.15
2022-10-05T02:10:28.966Z,4.78
2022-10-05T02:13:16.952Z,4.80
2022-10-05T02:15:51.886Z,5.90
2022-10-05T02:18:22.104Z,3.05
2022-10-05T02:20:49.626Z,4.07
2022-10-05T02:23:23.616Z,8.90
2022-10-05T02:25:52.518Z,6.80
2022-10-05T02:28:32.214Z,7.47
2022-10-05T02:31:15.300Z,7.72
2022-10-05T02:33:41.784Z,4.75
2022-10-05T02:36:11.217Z,7.82
2022-10-05T02:38:45.513Z,7.75
2022-10-05T02:41:42.588Z,8.05
2022-10-05T02:44:12.137Z,6.60
2022-10-05T02:46:49.925Z,8.55
2022-10-05T02:49:45.523Z,5.72
2022-10-05T02:52:21.851Z,9.60
2022-10-05T02:55:00.635Z,5.40
2022-10-05T02:57:38.271Z,7.53
2022-10-05T03:00:17.005Z,6.18
2022-10-05T03:03:01.717Z,6.70
2022-10-05T03:05:39.599Z,5.03
2022-10-05T03:08:10.457Z,7.18
2022-10-05T03:10:50.285Z,10.55
2022-10-05T03:13:30.211Z,9.00
2022-10-05T03:16:21.095Z,7.70
2022-10-05T03:18:58.105Z,9.93
2022-10-05T03:21:44.103Z,11.65
2022-10-05T03:24:30.997Z,7.30
2022-10-05T03:27:18.637Z,8.38
2022-10-05T03:30:10.801Z,11.57
2022-10-05T03:32:59.094Z,4.05
2022-10-05T03:35:33.167Z,8.07
2022-10-05T03:38:26.814Z,9.20
2022-10-05T03:40:55.234Z,8.55
2022-10-05T03:43:35.377Z,5.72
2022-10-05T03:46:09.104Z,6.85
2022-10-05T03:48:44.287Z,12.90
2022-10-05T03:51:30.968Z,6.85
2022-10-05T03:54:03.500Z,8.07
2022-10-05T03:56:36.852Z,10.52
2022-10-05T03:59:16.482Z,9.30
2022-10-05T04:01:51.754Z,7.88
2022-10-05T04:04:28.359Z,10.02
2022-10-05T04:06:57.305Z,9.90
2022-10-05T04:09:31.847Z,8.95
2022-10-05T04:12:02.285Z,11.98
2022-10-05T04:14:32.884Z,9.48
2022-10-05T04:17:03.481Z,10.95
2022-10-05T04:19:54.167Z,11.55
2022-10-05T04:22:29.578Z,12.52
2022-10-05T04:24:59.646Z,11.60
2022-10-05T04:27:46.696Z,8.40
2022-10-05T04:30:19.854Z,11.10
2022-10-05T04:32:57.646Z,13.20
2022-10-05T04:35:48.509Z,8.40
2022-10-05T04:38:27.214Z,10.75
2022-10-05T04:43:42.971Z,11.45
2022-10-05T04:46:18.538Z,11.27
2022-10-05T04:49:31.592Z,11.73
2022-10-05T04:52:13.364Z,14.05
2022-10-05T04:55:13.322Z,11.07
2022-10-05T04:58:07.290Z,14.30
2022-10-05T05:00:42.161Z,10.45
2022-10-05T05:03:24.617Z,10.10
2022-10-05T05:06:16.785Z,5.97
2022-10-05T05:08:46.707Z,12.23
2022-10-05T05:11:24.554Z,11.77
2022-10-05T05:14:14.262Z,5.75
2022-10-05T05:16:46.203Z,9.88
2022-10-05T05:19:29.214Z,10.05
2022-10-05T05:22:02.463Z,11.02
2022-10-05T05:24:45.319Z,13.45
2022-10-05T05:27:17.558Z,12.38
2022-10-05T05:29:50.248Z,11.90
2022-10-05T05:32:41.242Z,3.85
2022-10-05T05:35:32.210Z,8.38
2022-10-05T05:38:04.550Z,6.05
2022-10-05T05:40:34.756Z,7.10
2022-10-05T05:43:03.332Z,11.00
2022-10-05T05:45:54.558Z,10.95
2022-10-05T05:48:42.645Z,11.52
2022-10-05T05:51:20.691Z,11.27
2022-10-05T05:53:53.309Z,8.93
2022-10-05T05:56:42.001Z,11.10
2022-10-05T05:59:17.064Z,10.43
2022-10-05T06:01:52.084Z,7.25
2022-10-05T06:04:40.825Z,8.85
2022-10-05T06:07:16.857Z,6.82
2022-10-05T06:09:52.855Z,10.70
2022-10-05T06:12:24.496Z,10.70
2022-10-05T06:14:55.266Z,4.93
2022-10-05T06:17:26.503Z,13.07
2022-10-05T06:20:01.095Z,7.60
2022-10-05T06:22:35.714Z,10.20
2022-10-05T06:25:15.000Z,6.10
2022-10-05T06:28:12.108Z,5.47
2022-10-05T06:30:57.445Z,6.93
2022-10-05T06:33:28.087Z,8.95
2022-10-05T06:36:33.768Z,7.97
2022-10-05T06:39:27.103Z,10.05
2022-10-05T06:41:59.825Z,9.98
2022-10-05T06:44:34.508Z,9.43
2022-10-05T06:47:14.973Z,9.18
2022-10-05T06:49:56.740Z,11.13
2022-10-05T06:52:38.221Z,9.05
2022-10-05T06:55:21.688Z,10.90
2022-10-05T06:58:11.430Z,6.90
2022-10-05T07:01:10.989Z,10.65
2022-10-05T07:04:03.767Z,7.20
2022-10-05T07:06:36.170Z,7.35
2022-10-05T07:09:58.868Z,12.18
2022-10-05T07:12:40.110Z,11.43
2022-10-05T07:15:30.207Z,11.10
2022-10-05T07:18:05.701Z,10.73
2022-10-05T07:20:56.678Z,8.05
2022-10-05T07:23:44.868Z,8.13
2022-10-05T07:26:32.110Z,7.05
2022-10-05T07:29:12.216Z,3.50
2022-10-05T07:31:58.843Z,11.32
2022-10-05T07:34:27.770Z,11.38
2022-10-05T07:37:27.477Z,12.18
2022-10-05T07:40:25.834Z,8.23
2022-10-05T07:43:19.518Z,12.52
2022-10-05T07:46:05.966Z,10.32
2022-10-05T07:48:53.235Z,8.75
2022-10-05T07:52:17.062Z,10.35
2022-10-05T07:55:07.285Z,8.82
2022-10-05T07:57:41.925Z,12.20
2022-10-05T08:00:15.703Z,11.50
2022-10-05T08:02:51.437Z,7.47
2022-10-05T08:05:22.167Z,12.70
2022-10-05T08:07:53.089Z,7.15
2022-10-05T08:10:42.693Z,13.93
2022-10-05T08:13:24.374Z,13.35
2022-10-05T08:15:55.910Z,17.63
2022-10-05T08:18:41.669Z,9.05
2022-10-05T08:21:12.045Z,7.60
2022-10-05T08:23:48.662Z,16.63
2022-10-05T08:26:36.480Z,14.60
2022-10-05T08:29:31.079Z,16.95
2022-10-05T08:32:02.347Z,14.85
2022-10-05T08:34:52.425Z,12.55
2022-10-05T08:37:28.015Z,22.25
2022-10-05T08:40:21.385Z,14.75
2022-10-05T08:43:08.101Z,19.38
2022-10-05T08:45:43.533Z,17.67
2022-10-05T08:48:35.868Z,13.88
2022-10-05T08:51:25.701Z,9.48
2022-10-05T08:54:07.417Z,8.90
2022-10-05T08:56:43.156Z,12.43
2022-10-05T08:59:18.701Z,10.07
2022-10-05T09:02:25.275Z,10.77
2022-10-05T09:05:14.627Z,12.25
2022-10-05T09:08:07.110Z,8.02
2022-10-05T09:10:54.845Z,5.93
2022-10-05T09:13:42.860Z,6.18
2022-10-05T09:16:24.636Z,10.07
2022-10-05T09:18:57.050Z,10.13
2022-10-05T09:21:48.949Z,9.55
2022-10-05T09:24:26.194Z,11.38
2022-10-05T09:27:13.003Z,11.90
2022-10-05T09:29:57.595Z,7.78
2022-10-05T09:33:05.630Z,12.02
2022-10-05T09:35:50.196Z,6.03
2022-10-05T09:38:38.373Z,11.77
2022-10-05T09:41:24.207Z,13.23
2022-10-05T09:44:19.332Z,11.77
2022-10-05T09:47:10.884Z,9.13
2022-10-05T09:49:58.972Z,6.10
2022-10-05T09:52:49.736Z,10.73
2022-10-05T09:55:31.414Z,6.40
2022-10-05T09:58:20.297Z,11.25
2022-10-05T10:01:36.714Z,7.68
2022-10-05T10:04:27.205Z,4.15
2022-10-05T10:07:12.212Z,8.30
2022-10-05T10:10:03.070Z,9.55
2022-10-05T10:12:46.742Z,11.15
2022-10-05T10:15:38.446Z,6.78
2022-10-05T10:18:29.861Z,10.30
2022-10-05T10:21:42.295Z,7.35
2022-10-05T10:24:47.610Z,6.28
2022-10-05T10:27:20.472Z,6.93
2022-10-05T10:30:14.544Z,7.05
2022-10-05T10:33:15.444Z,9.57
2022-10-05T10:35:51.097Z,12.07
2022-10-05T10:38:38.662Z,7.63
2022-10-05T10:41:33.982Z,5.47
2022-10-05T10:44:31.244Z,7.05
2022-10-05T10:49:42.249Z,7.70
2022-10-05T10:52:24.889Z,9.73
2022-10-05T10:55:18.446Z,8.63
2022-10-05T10:57:59.266Z,10.38
2022-10-05T11:00:39.083Z,11.95
2022-10-05T11:03:33.656Z,9.02
2022-10-05T11:06:17.262Z,11.07
2022-10-05T11:08:49.799Z,8.50
2022-10-05T11:11:23.358Z,4.35
2022-10-05T11:13:56.316Z,10.80
2022-10-05T11:16:34.951Z,11.02
2022-10-05T11:19:30.924Z,6.85
2022-10-05T11:22:25.871Z,8.07
2022-10-05T11:25:27.900Z,5.05
2022-10-05T11:28:03.317Z,6.55
2022-10-05T11:30:52.732Z,4.38
2022-10-05T11:33:49.704Z,7.38
2022-10-05T11:36:35.040Z,7.63
2022-10-05T11:39:24.896Z,8.90
2022-10-05T11:42:25.671Z,8.88
2022-10-05T11:45:19.314Z,4.55
2022-10-05T11:48:04.101Z,8.93
2022-10-05T11:53:15.186Z,6.03
2022-10-05T11:56:03.134Z,5.60
2022-10-05T11:58:37.992Z,7.15
2022-10-05T12:01:11.308Z,6.05
2022-10-05T12:03:53.721Z,6.30
2022-10-05T12:06:22.252Z,5.68
2022-10-05T12:09:22.684Z,8.13
2022-10-05T12:11:57.677Z,5.72
2022-10-05T12:14:34.062Z,6.22
2022-10-05T12:17:06.724Z,8.90
2022-10-05T12:19:41.085Z,8.15
2022-10-05T12:22:17.990Z,16.45
2022-10-05T12:25:01.739Z,6.45
2022-10-05T12:27:38.038Z,4.90
2022-10-05T12:30:32.631Z,8.63
2022-10-05T12:33:08.064Z,8.95
2022-10-05T12:36:01.594Z,11.85
2022-10-05T12:38:38.065Z,4.38
2022-10-05T12:41:36.775Z,9.68
2022-10-05T12:44:32.855Z,5.55
2022-10-05T12:47:34.042Z,7.45
2022-10-05T12:50:21.586Z,6.05
2022-10-05T12:53:09.570Z,7.25
2022-10-05T12:55:43.990Z,11.40
2022-10-05T12:58:30.088Z,10.32
2022-10-05T13:01:26.503Z,12.88
2022-10-05T13:04:19.583Z,7.53
2022-10-05T13:07:17.458Z,7.60
2022-10-05T13:09:49.921Z,6.38
2022-10-05T13:12:22.082Z,8.82
2022-10-05T13:15:04.432Z,8.00
2022-10-05T13:17:38.457Z,9.35
2022-10-05T13:20:21.593Z,8.02
2022-10-05T13:22:52.840Z,4.72
2022-10-05T13:25:36.693Z,12.35
2022-10-05T13:28:27.821Z,14.18
2022-10-05T13:31:17.344Z,13.00
2022-10-05T13:34:01.989Z,11.27
2022-10-05T13:36:41.614Z,12.43
2022-10-05T13:39:20.980Z,6.88
2022-10-05T13:41:56.412Z,9.35
2022-10-05T13:44:44.623Z,12.43
2022-10-05T13:47:32.595Z,10.93
2022-10-05T13:50:22.416Z,8.48
2022-10-05T13:53:07.646Z,11.60
2022-10-05T13:55:46.742Z,6.93
2022-10-05T13:58:48.120Z,8.88
2022-10-05T14:01:18.845Z,12.57
2022-10-05T14:04:19.135Z,12.48
2022-10-05T14:06:46.634Z,8.63
2022-10-05T14:09:25.393Z,5.38
2022-10-05T14:12:06.327Z,5.95
2022-10-05T14:14:43.121Z,12.90
2022-10-05T14:17:33.254Z,10.52
2022-10-05T14:20:01.049Z,9.50
2022-10-05T14:22:27.903Z,8.40
2022-10-05T14:24:56.557Z,11.98
2022-10-05T14:27:34.052Z,16.48
2022-10-05T14:30:12.714Z,8.75
2022-10-05T14:33:07.030Z,7.50
2022-10-05T14:35:49.276Z,5.40
2022-10-05T14:38:19.671Z,8.02
2022-10-05T14:40:46.146Z,12.68
2022-10-05T14:43:15.474Z,9.90
2022-10-05T14:45:57.134Z,12.05
2022-10-05T14:48:28.178Z,5.80
2022-10-05T14:51:03.149Z,5.80
2022-10-05T14:53:56.061Z,9.10
2022-10-05T14:56:25.826Z,9.70
2022-10-05T14:59:23.106Z,9.23
2022-10-05T15:05:01.253Z,5.97
2022-10-05T15:07:27.554Z,9.48
2022-10-05T15:09:53.842Z,18.73
2022-10-05T15:12:31.720Z,15.25
2022-10-05T15:15:32.949Z,19.75
2022-10-05T15:18:42.916Z,6.05
2022-10-05T15:21:23.735Z,10.30
2022-10-05T15:24:03.323Z,6.95
2022-10-05T15:26:39.089Z,5.30
2022-10-05T15:29:14.209Z,11.88
2022-10-05T15:31:44.839Z,8.55
2022-10-05T15:34:29.598Z,6.18
2022-10-05T15:37:10.237Z,8.50
2022-10-05T15:39:57.463Z,16.63
2022-10-05T15:42:52.660Z,10.55
2022-10-05T15:45:54.066Z,10.10
2022-10-05T15:48:29.117Z,7.45
2022-10-05T15:51:17.287Z,6.93
2022-10-05T15:53:43.711Z,9.23
2022-10-05T15:56:28.258Z,5.75
2022-10-05T15:59:02.799Z,9.93
2022-10-05T16:01:32.338Z,6.00
2022-10-05T16:04:03.527Z,6.30
2022-10-05T16:07:01.174Z,6.80
2022-10-05T16:09:46.468Z,7.13
2022-10-05T16:12:40.635Z,10.05
2022-10-05T16:15:23.244Z,6.78
2022-10-05T16:18:04.762Z,11.82
2022-10-05T16:20:53.026Z,6.18
2022-10-05T16:23:43.694Z,8.75
2022-10-05T16:26:32.755Z,6.72
2022-10-05T16:29:17.740Z,10.05
2022-10-05T16:31:54.589Z,8.70
2022-10-05T16:34:47.161Z,9.80
2022-10-05T16:37:25.669Z,11.38
2022-10-05T16:42:43.925Z,11.88
2022-10-05T16:45:47.737Z,6.78
2022-10-05T16:51:16.124Z,13.02
2022-10-05T16:53:59.874Z,10.70
2022-10-05T16:56:31.152Z,8.30
2022-10-05T16:59:32.293Z,8.43
2022-10-05T17:02:27.061Z,8.55
2022-10-05T17:05:24.064Z,8.23
2022-10-05T17:08:15.468Z,7.43
2022-10-05T17:10:53.332Z,9.63
2022-10-05T17:13:53.879Z,5.55
2022-10-05T17:16:27.717Z,8.20
2022-10-05T17:19:01.710Z,6.32
2022-10-05T17:21:34.683Z,6.22
2022-10-05T17:24:17.289Z,6.07
2022-10-05T17:27:19.017Z,6.15
2022-10-05T17:29:53.642Z,8.43
2022-10-05T17:32:19.975Z,6.43
2022-10-05T17:35:18.184Z,10.00
2022-10-05T17:38:14.105Z,11.75
2022-10-05T17:40:42.387Z,10.60
2022-10-05T17:43:15.364Z,9.75
2022-10-05T17:45:41.710Z,6.45
2022-10-05T17:48:12.336Z,11.00
2022-10-05T17:51:02.973Z,11.95
2022-10-05T17:54:03.324Z,11.73
2022-10-05T17:56:44.712Z,5.55
2022-10-05T17:59:12.134Z,8.02
2022-10-05T18:01:40.076Z,10.13
2022-10-05T18:04:12.690Z,12.40
2022-10-05T18:06:40.227Z,13.40
2022-10-05T18:09:21.579Z,11.23
2022-10-05T18:12:16.117Z,9.15
2022-10-05T18:15:02.112Z,12.95
2022-10-05T18:17:36.174Z,9.95
2022-10-05T18:20:14.682Z,8.40
2022-10-05T18:22:43.989Z,5.80
2022-10-05T18:25:29.395Z,3.97
2022-10-05T18:28:14.403Z,6.18
2022-10-05T18:30:59.663Z,9.93
2022-10-05T18:33:39.153Z,8.13
2022-10-05T18:36:15.315Z,6.47
2022-10-05T18:38:54.231Z,10.60
2022-10-05T18:41:48.423Z,7.90
2022-10-05T18:44:42.101Z,11.02
2022-10-05T18:47:08.426Z,13.07
2022-10-05T18:49:49.550Z,16.60
2022-10-05T18:52:24.962Z,9.75
2022-10-05T18:55:00.809Z,10.27
2022-10-05T18:57:30.063Z,7.88
2022-10-05T19:00:08.541Z,5.53
2022-10-05T19:02:42.900Z,10.25
2022-10-05T19:05:49.026Z,13.93
2022-10-05T19:08:43.192Z,10.32
2022-10-05T19:11:17.894Z,12.88
2022-10-05T19:13:56.402Z,22.90
2022-10-05T19:17:00.493Z,20.63
2022-10-05T19:19:43.800Z,17.38
2022-10-05T19:22:47.963Z,19.02
2022-10-05T19:25:38.826Z,18.40
2022-10-05T19:28:12.684Z,22.42
2022-10-05T19:31:03.801Z,15.07
2022-10-05T19:34:07.742Z,18.48
2022-10-05T19:39:49.333Z,15.98
2022-10-05T19:42:38.818Z,16.55
2022-10-05T19:45:24.728Z,14.68
2022-10-05T19:48:20.126Z,13.63
2022-10-05T19:51:12.181Z,24.15
2022-10-05T19:53:45.932Z,26.85
2022-10-05T19:56:21.234Z,22.95
2022-10-05T19:59:01.284Z,22.65
2022-10-05T20:01:35.435Z,19.58
2022-10-05T20:04:04.554Z,20.50
2022-10-05T20:06:31.018Z,24.83
2022-10-05T20:08:59.953Z,19.23
2022-10-05T20:11:27.877Z,18.52
2022-10-05T20:13:55.043Z,14.13
2022-10-05T20:17:00.097Z,23.23
2022-10-05T20:19:50.988Z,25.17
2022-10-05T20:22:30.820Z,22.33
2022-10-05T20:25:01.046Z,20.00
2022-10-05T20:27:39.658Z,21.27
2022-10-05T20:30:07.368Z,24.00
2022-10-05T20:32:34.031Z,21.77
2022-10-05T20:35:00.625Z,24.13
2022-10-05T20:37:27.112Z,26.35
2022-10-05T20:39:53.561Z,21.48
2022-10-05T20:42:21.042Z,21.63
2022-10-05T20:44:50.779Z,17.77
2022-10-05T20:47:19.446Z,21.30
2022-10-05T20:49:45.872Z,24.08
2022-10-05T20:52:14.986Z,20.42
2022-10-05T20:54:41.915Z,19.73
2022-10-05T20:57:09.076Z,9.88
2022-10-05T20:59:36.111Z,24.17
2022-10-05T21:02:05.938Z,25.40
2022-10-05T21:04:40.649Z,16.77
2022-10-05T21:07:15.549Z,25.98
2022-10-05T21:09:43.660Z,26.40
2022-10-05T21:12:10.909Z,27.35
2022-10-05T21:14:38.015Z,16.50
2022-10-05T21:17:05.198Z,14.18
2022-10-05T21:19:38.063Z,28.23
2022-10-05T21:22:08.781Z,13.88
2022-10-05T21:24:39.333Z,16.58
2022-10-05T21:27:06.261Z,24.50
2022-10-05T21:29:36.339Z,23.42
2022-10-05T21:32:03.710Z,19.38
2022-10-05T21:34:30.276Z,11.88
2022-10-05T21:36:57.109Z,24.83
2022-10-05T21:39:53.985Z,14.30
2022-10-05T21:42:20.386Z,10.82
2022-10-05T21:44:49.603Z,15.32
2022-10-05T21:47:16.014Z,18.33
2022-10-05T21:49:43.397Z,11.52
2022-10-05T21:52:10.597Z,13.82
2022-10-05T21:54:37.096Z,24.77
2022-10-05T21:57:04.052Z,16.90
2022-10-05T21:59:32.521Z,22.42
2022-10-05T22:01:59.239Z,20.92
2022-10-05T22:04:25.766Z,17.30
2022-10-05T22:06:54.008Z,27.20
2022-10-05T22:09:20.818Z,13.63
2022-10-05T22:11:47.970Z,18.85
2022-10-05T22:14:15.486Z,15.95
2022-10-05T22:16:43.459Z,15.20
2022-10-05T22:19:15.752Z,15.10
2022-10-05T22:21:42.395Z,28.17
2022-10-05T22:24:11.379Z,24.48
2022-10-05T22:26:41.450Z,27.13
2022-10-05T22:29:08.032Z,23.08
2022-10-05T22:31:34.518Z,29.95
2022-10-05T22:34:02.963Z,28.98
2022-10-05T22:36:33.368Z,15.23
2022-10-05T22:38:59.809Z,29.20
2022-10-05T22:41:26.223Z,29.33
2022-10-05T22:43:52.878Z,15.98
2022-10-05T22:46:19.795Z,24.20
2022-10-05T22:48:46.458Z,26.52
2022-10-05T22:51:13.635Z,19.35
2022-10-05T22:53:40.144Z,16.10
2022-10-05T22:56:07.709Z,29.15
2022-10-05T22:58:34.167Z,30.55
2022-10-05T23:01:05.147Z,24.90
2022-10-05T23:03:32.784Z,21.42
2022-10-05T23:06:05.721Z,30.13
2022-10-05T23:08:38.107Z,30.30
2022-10-05T23:13:38.352Z,28.17
2022-10-05T23:16:15.944Z,30.30
2022-10-05T23:18:45.016Z,22.75
2022-10-05T23:21:11.782Z,32.38
2022-10-05T23:23:43.359Z,18.63
2022-10-05T23:26:13.640Z,19.30
2022-10-05T23:28:43.088Z,26.75
2022-10-05T23:31:09.648Z,29.77
2022-10-05T23:33:37.173Z,32.65
2022-10-05T23:36:26.515Z,29.95
2022-10-05T23:38:54.119Z,27.83
2022-10-05T23:41:21.530Z,21.95
2022-10-05T23:43:48.288Z,32.75
2022-10-05T23:46:15.320Z,34.72
2022-10-05T23:48:47.117Z,27.58
2022-10-05T23:51:14.415Z,29.58
2022-10-05T23:53:40.959Z,27.67
2022-10-05T23:56:07.525Z,31.23
2022-10-05T23:58:37.438Z,26.27
